Orbital elements of COSMOS 970 DEB
| Launched | 20 December 1977 |
| Flight ended | – |
| Launch site | Tyuratam Missile and Space Center, Kazakhstan (Also known as Baikonur Cosmodrome) |
| Owner | Commonwealth of Independent States (former USSR) |
| NORAD ID | 12942 |
| Date fetched |
Epoch osculation |
Inc. [°] |
Ecc. | RA asc node [hr] |
Arg Peri. [°] |
Mean anom [°] |
Mean motion [rev/day] |
Abs. mag |
| Date fetched |
Epoch osculation |
Inc. [°] |
Ecc. | RA asc node [hr] |
Arg Peri. [°] |
Mean anom [°] |
Mean motion [rev/day] |
Abs. mag |
| 2026 May 03 17:57 | 2026 Apr 30 13:54:49 | 65.8297 | 0.01122 | 17.9738 | 230.9298 | 204.7534 | 13.37845 | – |
| 2026 May 02 17:57 | 2026 Apr 30 13:54:49 | 65.8297 | 0.01122 | 17.9738 | 230.9298 | 204.7534 | 13.37845 | – |
| 2026 May 01 17:56 | 2026 Apr 30 13:54:49 | 65.8297 | 0.01122 | 17.9738 | 230.9298 | 204.7534 | 13.37845 | – |
| 2026 Apr 30 17:56 | 2026 Apr 30 13:54:49 | 65.8297 | 0.01122 | 17.9738 | 230.9298 | 204.7534 | 13.37845 | – |
| 2026 Apr 29 17:57 | 2026 Apr 22 17:38:32 | 65.8293 | 0.01124 | 19.1863 | 234.3403 | 204.7534 | 13.37845 | – |
| 2026 Apr 28 17:56 | 2026 Apr 22 17:38:32 | 65.8293 | 0.01124 | 19.1863 | 234.3403 | 204.7534 | 13.37845 | – |
| 2026 Apr 27 17:58 | 2026 Apr 22 17:38:32 | 65.8293 | 0.01124 | 19.1863 | 234.3403 | 204.7534 | 13.37845 | – |
| 2026 Apr 26 17:58 | 2026 Apr 22 17:38:32 | 65.8293 | 0.01124 | 19.1863 | 234.3403 | 204.7534 | 13.37845 | – |
| 2026 Apr 25 17:58 | 2026 Apr 22 17:38:32 | 65.8293 | 0.01124 | 19.1863 | 234.3403 | 204.7534 | 13.37845 | – |
| 2026 Apr 24 17:59 | 2026 Apr 22 17:38:32 | 65.8293 | 0.01124 | 19.1863 | 234.3403 | 204.7534 | 13.37845 | – |
| 2026 Apr 23 17:57 | 2026 Apr 18 22:24:08 | 65.8297 | 0.01124 | 19.7739 | 236.0173 | 204.7534 | 13.37845 | – |
| 2026 Apr 22 17:57 | 2026 Apr 18 22:24:08 | 65.8297 | 0.01124 | 19.7739 | 236.0173 | 204.7534 | 13.37845 | – |
| 2026 Apr 21 17:57 | 2026 Apr 18 22:24:08 | 65.8297 | 0.01124 | 19.7739 | 236.0173 | 204.7534 | 13.37845 | – |
| 2026 Apr 20 17:57 | 2026 Apr 18 22:24:08 | 65.8297 | 0.01124 | 19.7739 | 236.0173 | 204.7534 | 13.37845 | – |
| 2026 Apr 19 17:58 | 2026 Apr 18 22:24:08 | 65.8297 | 0.01124 | 19.7739 | 236.0173 | 204.7534 | 13.37845 | – |
| 2026 Apr 18 17:56 | 2026 Apr 13 00:41:38 | 65.8303 | 0.01126 | 20.6866 | 238.6479 | 204.7534 | 13.37845 | – |
| 2026 Apr 16 17:57 | 2026 Apr 13 00:41:38 | 65.8303 | 0.01126 | 20.6866 | 238.6479 | 204.7534 | 13.37845 | – |
| 2026 Apr 14 17:57 | 2026 Apr 13 00:41:38 | 65.8303 | 0.01126 | 20.6866 | 238.6479 | 204.7534 | 13.37845 | – |
| 2026 Apr 13 17:57 | 2026 Apr 13 00:41:38 | 65.8303 | 0.01126 | 20.6866 | 238.6479 | 204.7534 | 13.37845 | – |
| 2026 Apr 12 17:57 | 2026 Apr 08 14:11:50 | 65.8309 | 0.01128 | 21.3725 | 240.6196 | 204.7534 | 13.37845 | – |
| 2026 Apr 11 17:57 | 2026 Apr 08 14:11:50 | 65.8309 | 0.01128 | 21.3725 | 240.6196 | 204.7534 | 13.37845 | – |
| 2026 Apr 10 17:58 | 2026 Apr 08 14:11:50 | 65.8309 | 0.01128 | 21.3725 | 240.6196 | 204.7534 | 13.37845 | – |
| 2026 Apr 09 18:01 | 2026 Apr 08 14:11:50 | 65.8309 | 0.01128 | 21.3725 | 240.6196 | 204.7534 | 13.37845 | – |
| 2026 Apr 08 17:57 | 2026 Apr 08 14:11:50 | 65.8309 | 0.01128 | 21.3725 | 240.6196 | 204.7534 | 13.37845 | – |
| 2026 Apr 07 17:57 | 2026 Apr 02 00:45:38 | 65.8319 | 0.01132 | 22.3863 | 243.5352 | 204.7534 | 13.37845 | – |
| 2026 Apr 06 17:57 | 2026 Apr 02 00:45:38 | 65.8319 | 0.01132 | 22.3863 | 243.5352 | 204.7534 | 13.37845 | – |